Time;durP1;ratioP1;P1;durP2;ratioP2;P2;SDS_P1;SDS_P2;PMS_P1;PMS_P2;Temp;Humidity;BMP_temperature;BMP_pressure;BME280_temperature;BME280_humidity;BME280_pressure;Samples;Min_cycle;Max_cycle;Signal;HPM_P1;HPM_P2
2021/01/30 00:02:08;;;;;;;7.18;4.53;;;1.90;99.90;;;;;;4975952;28;20058;-84
2021/01/30 00:04:36;;;;;;;6.82;4.60;;;1.90;99.90;;;;;;4984756;28;20031;-86
2021/01/30 00:07:03;;;;;;;7.65;4.40;;;1.90;99.90;;;;;;4968433;28;20043;-86
2021/01/30 00:09:28;;;;;;;7.97;5.53;;;1.90;99.90;;;;;;4984554;28;20054;-84
2021/01/30 00:11:57;;;;;;;9.57;6.30;;;1.90;99.90;;;;;;4966162;28;20062;-84
2021/01/30 00:14:25;;;;;;;10.85;7.07;;;1.80;99.90;;;;;;5000972;28;20098;-84
2021/01/30 00:16:51;;;;;;;9.70;6.55;;;1.80;99.90;;;;;;4969268;28;20030;-85
2021/01/30 00:19:17;;;;;;;10.60;7.32;;;1.80;99.90;;;;;;5000798;28;20053;-85
2021/01/30 00:21:57;;;;;;;10.73;7.13;;;1.80;99.90;;;;;;4968688;28;20033;-85
2021/01/30 00:24:25;;;;;;;12.63;8.43;;;1.80;99.90;;;;;;4980282;28;20026;-85
2021/01/30 00:26:52;;;;;;;12.70;8.55;;;1.70;99.90;;;;;;5000984;28;20493;-84
2021/01/30 00:29:20;;;;;;;15.18;9.30;;;1.70;99.90;;;;;;5000755;28;20027;-85
2021/01/30 00:31:45;;;;;;;15.25;10.20;;;1.60;99.90;;;;;;5000940;28;20058;-84
2021/01/30 00:34:11;;;;;;;17.70;11.93;;;1.60;99.90;;;;;;5000776;28;20042;-85
2021/01/30 00:36:37;;;;;;;19.63;12.15;;;1.60;99.90;;;;;;5003579;28;20026;-85
2021/01/30 00:39:04;;;;;;;18.35;11.20;;;1.50;99.90;;;;;;4968861;28;20121;-84
2021/01/30 00:41:30;;;;;;;20.08;11.70;;;1.50;99.90;;;;;;4985281;28;20166;-84
2021/01/30 00:43:59;;;;;;;21.73;11.80;;;1.50;99.90;;;;;;5003969;28;20103;-85
2021/01/30 00:46:25;;;;;;;20.45;11.75;;;1.50;99.90;;;;;;4969024;28;20129;-84
2021/01/30 00:48:50;;;;;;;18.55;11.38;;;1.40;99.90;;;;;;4968794;28;20023;-84
2021/01/30 00:51:19;;;;;;;21.85;13.32;;;1.50;99.90;;;;;;4990748;28;20031;-84
2021/01/30 00:53:46;;;;;;;20.17;12.13;;;1.50;99.90;;;;;;4971678;28;20023;-85
2021/01/30 00:56:13;;;;;;;22.08;13.27;;;1.50;99.90;;;;;;5003939;28;20073;-85
2021/01/30 00:58:40;;;;;;;19.38;12.00;;;1.40;99.90;;;;;;4971742;28;20023;-85
2021/01/30 01:01:06;;;;;;;24.05;14.73;;;1.40;99.90;;;;;;5003909;28;20034;-84
2021/01/30 01:03:32;;;;;;;19.38;11.60;;;1.30;99.90;;;;;;4968775;28;20055;-84
2021/01/30 01:06:03;;;;;;;17.63;11.07;;;1.40;99.90;;;;;;4969672;28;20030;-84
2021/01/30 01:08:29;;;;;;;19.67;11.18;;;1.40;99.90;;;;;;4968787;28;20047;-84
2021/01/30 01:10:56;;;;;;;21.38;11.98;;;1.30;99.90;;;;;;4988938;28;20046;-84
2021/01/30 01:13:21;;;;;;;20.95;12.15;;;1.30;99.90;;;;;;4988724;28;20034;-84
2021/01/30 01:15:47;;;;;;;22.15;12.55;;;1.30;99.90;;;;;;5004224;28;20058;-84
2021/01/30 01:18:13;;;;;;;20.67;10.98;;;1.30;99.90;;;;;;4971397;28;20747;-84
2021/01/30 01:20:39;;;;;;;19.70;11.57;;;1.20;99.90;;;;;;4971242;28;20030;-84
2021/01/30 01:23:05;;;;;;;20.73;12.20;;;1.20;99.90;;;;;;4965797;28;20034;-84
2021/01/30 01:25:31;;;;;;;25.25;16.10;;;1.20;99.90;;;;;;4987135;28;20102;-84
2021/01/30 01:27:57;;;;;;;28.17;16.90;;;1.00;99.90;;;;;;4968534;28;20031;-84
2021/01/30 01:30:23;;;;;;;27.27;17.05;;;1.00;99.90;;;;;;4984336;28;20031;-84
2021/01/30 01:32:51;;;;;;;29.67;18.30;;;1.00;99.90;;;;;;4988328;28;20045;-84
2021/01/30 01:35:23;;;;;;;22.90;13.52;;;1.00;99.90;;;;;;4972206;28;20039;-84
2021/01/30 01:37:51;;;;;;;23.55;14.23;;;1.00;99.90;;;;;;5005258;28;20438;-85
2021/01/30 01:40:20;;;;;;;21.45;14.07;;;1.00;99.90;;;;;;4986724;28;20029;-83
2021/01/30 01:42:46;;;;;;;21.00;13.48;;;0.90;99.90;;;;;;4970989;28;20023;-84
2021/01/30 01:45:12;;;;;;;20.15;13.15;;;0.80;99.90;;;;;;4971047;28;20050;-84
2021/01/30 01:47:41;;;;;;;16.98;10.30;;;0.80;99.90;;;;;;4986786;28;20037;-84
2021/01/30 01:50:34;;;;;;;15.73;10.70;;;0.90;99.90;;;;;;5000251;28;20039;-84
2021/01/30 01:53:18;;;;;;;14.15;9.85;;;0.90;99.90;;;;;;4985160;28;20039;-84
2021/01/30 01:55:53;;;;;;;17.83;11.55;;;0.90;99.90;;;;;;4999048;28;20098;-84
2021/01/30 01:58:21;;;;;;;13.63;9.43;;;0.80;99.90;;;;;;5003146;28;20085;-84
2021/01/30 02:00:49;;;;;;;13.65;9.18;;;0.80;99.90;;;;;;4970340;28;20091;-84
2021/01/30 02:03:19;;;;;;;12.90;7.93;;;0.90;99.90;;;;;;5003101;28;20026;-84
2021/01/30 02:05:45;;;;;;;13.32;8.82;;;0.90;99.90;;;;;;4969406;28;20262;-86
2021/01/30 02:08:16;;;;;;;11.95;8.05;;;0.80;99.90;;;;;;4966443;28;20081;-84
2021/01/30 02:10:43;;;;;;;;;;;0.90;99.90;;;;;;4987185;28;20058;-84
2021/01/30 02:13:16;;;;;;;13.65;7.93;;;0.80;99.90;;;;;;4970339;28;19917;-84
2021/01/30 02:15:48;;;;;;;10.88;6.75;;;0.90;99.90;;;;;;4959087;28;20510;-84
2021/01/30 02:18:27;;;;;;;11.23;7.53;;;0.90;99.90;;;;;;4970090;28;20039;-83
2021/01/30 02:21:01;;;;;;;8.40;5.03;;;1.00;99.90;;;;;;4951824;28;20041;-84
2021/01/30 02:23:52;;;;;;;12.35;7.53;;;0.90;99.90;;;;;;4970068;28;20031;-84
2021/01/30 02:26:49;;;;;;;16.05;8.85;;;0.80;99.90;;;;;;4966520;29;20035;-85
2021/01/30 02:29:39;;;;;;;12.18;7.88;;;0.80;99.90;;;;;;4960751;28;20537;-84
2021/01/30 02:32:36;;;;;;;12.27;7.60;;;0.80;99.90;;;;;;4970772;28;20042;-84
2021/01/30 02:35:36;;;;;;;9.82;5.95;;;0.90;99.90;;;;;;4961972;28;20070;-84
2021/01/30 02:38:16;;;;;;;10.95;6.28;;;0.90;99.90;;;;;;4985876;28;20043;-84
2021/01/30 02:40:46;;;;;;;10.70;6.95;;;0.90;99.90;;;;;;4968857;28;20031;-84
2021/01/30 02:43:18;;;;;;;11.15;7.45;;;0.80;99.90;;;;;;4969725;28;20035;-83
2021/01/30 02:45:48;;;;;;;8.63;5.63;;;0.80;99.90;;;;;;4969559;28;20089;-84
2021/01/30 02:48:31;;;;;;;10.52;6.10;;;0.80;99.90;;;;;;4967931;28;20114;-84
2021/01/30 02:51:02;;;;;;;10.52;6.45;;;0.80;99.90;;;;;;4965032;28;20118;-84
2021/01/30 02:53:32;;;;;;;9.70;5.43;;;0.80;99.90;;;;;;4953476;28;20058;-84
2021/01/30 02:56:00;;;;;;;8.97;5.07;;;0.80;99.90;;;;;;4966647;28;20034;-85
2021/01/30 02:58:35;;;;;;;9.20;5.07;;;0.90;99.90;;;;;;4966280;28;20031;-84
2021/01/30 03:01:01;;;;;;;9.40;5.57;;;0.90;99.90;;;;;;4965195;28;20027;-83
2021/01/30 03:03:26;;;;;;;10.30;5.20;;;0.80;99.90;;;;;;4969451;28;20027;-84
2021/01/30 03:06:05;;;;;;;9.68;6.22;;;0.80;99.90;;;;;;4968457;28;20027;-84
2021/01/30 03:08:47;;;;;;;12.38;7.00;;;0.80;99.90;;;;;;4978473;28;20034;-84
2021/01/30 03:11:16;;;;;;;10.65;6.63;;;0.80;99.90;;;;;;4969019;28;20039;-84
2021/01/30 03:14:04;;;;;;;13.77;7.35;;;0.80;99.90;;;;;;4967517;28;20023;-84
2021/01/30 03:16:36;;;;;;;10.32;6.43;;;0.80;99.90;;;;;;4965187;28;20526;-83
2021/01/30 03:19:08;;;;;;;11.40;6.63;;;0.70;99.90;;;;;;4969202;28;20569;-84
2021/01/30 03:21:36;;;;;;;11.15;5.70;;;0.80;99.90;;;;;;4964233;28;20031;-84
2021/01/30 03:24:03;;;;;;;8.20;4.85;;;0.90;99.90;;;;;;4969309;28;20031;-84
2021/01/30 03:26:31;;;;;;;10.88;6.15;;;0.90;99.90;;;;;;4963440;28;20031;-83
2021/01/30 03:28:57;;;;;;;7.93;4.70;;;0.90;99.90;;;;;;4969024;28;20038;-84
2021/01/30 03:31:23;;;;;;;8.25;5.20;;;0.80;99.90;;;;;;4985063;28;20031;-84
2021/01/30 03:33:50;;;;;;;7.88;4.18;;;0.80;99.90;;;;;;4970148;28;20263;-84
2021/01/30 03:36:16;;;;;;;7.55;4.30;;;0.80;99.90;;;;;;4969147;28;20098;-83
2021/01/30 03:38:41;;;;;;;9.27;4.97;;;0.80;99.90;;;;;;4985004;28;20033;-83
2021/01/30 03:41:07;;;;;;;9.35;6.18;;;0.80;99.90;;;;;;4963509;28;20055;-83
2021/01/30 03:43:33;;;;;;;8.77;5.32;;;0.70;99.90;;;;;;4966228;28;20031;-84
2021/01/30 03:45:58;;;;;;;8.48;5.30;;;0.70;99.90;;;;;;4966394;28;20098;-84
2021/01/30 03:48:24;;;;;;;7.50;4.88;;;0.80;99.90;;;;;;4976587;28;20459;-83
2021/01/30 03:50:50;;;;;;;7.30;4.38;;;0.80;99.90;;;;;;4969015;28;20047;-84
2021/01/30 03:53:16;;;;;;;8.50;5.22;;;0.80;99.90;;;;;;4950315;28;20047;-84
2021/01/30 03:55:42;;;;;;;6.03;4.95;;;0.70;99.90;;;;;;4966079;28;20440;-84
2021/01/30 03:58:09;;;;;;;9.50;5.50;;;0.70;99.90;;;;;;4966005;28;20031;-84
2021/01/30 04:00:35;;;;;;;8.80;5.30;;;0.70;99.90;;;;;;4968769;28;20037;-84
2021/01/30 04:03:01;;;;;;;9.88;5.75;;;0.70;99.90;;;;;;4966225;28;20033;-84
2021/01/30 04:05:46;;;;;;;6.85;4.85;;;0.70;99.90;;;;;;4968828;28;20027;-84
2021/01/30 04:08:12;;;;;;;7.82;4.88;;;0.70;99.90;;;;;;4889448;29;20138;-83
2021/01/30 04:10:38;;;;;;;8.85;6.78;;;0.70;99.90;;;;;;4911450;29;20033;-84
2021/01/30 04:13:06;;;;;;;6.63;4.25;;;0.60;99.90;;;;;;4907214;29;20048;-83
2021/01/30 04:15:35;;;;;;;7.05;4.40;;;0.60;99.90;;;;;;4898111;29;20028;-84
2021/01/30 04:18:01;;;;;;;6.82;4.00;;;0.70;99.90;;;;;;4913982;29;20519;-83
2021/01/30 04:20:26;;;;;;;6.25;3.90;;;0.70;99.90;;;;;;4900236;29;20108;-84
2021/01/30 04:22:52;;;;;;;7.50;4.65;;;0.70;99.90;;;;;;4898110;29;20060;-83
2021/01/30 04:25:22;;;;;;;6.43;4.00;;;0.70;99.90;;;;;;4913439;29;20133;-84
2021/01/30 04:27:48;;;;;;;7.32;4.35;;;0.70;99.90;;;;;;4911118;29;20032;-84
2021/01/30 04:30:18;;;;;;;7.38;4.00;;;0.70;99.90;;;;;;4913685;29;20056;-83
2021/01/30 04:32:44;;;;;;;5.63;3.53;;;0.70;99.90;;;;;;4913402;29;20548;-83
2021/01/30 04:35:13;;;;;;;6.88;3.47;;;0.70;99.90;;;;;;4912056;29;20029;-84
2021/01/30 04:37:38;;;;;;;8.40;4.72;;;0.70;99.90;;;;;;4897870;29;20555;-84
2021/01/30 04:40:07;;;;;;;8.15;4.40;;;0.70;99.90;;;;;;4894630;29;20037;-84
2021/01/30 04:42:54;;;;;;;8.02;4.63;;;0.70;99.90;;;;;;4903073;29;20021;-83
2021/01/30 04:45:46;;;;;;;6.63;3.20;;;0.70;99.90;;;;;;4950514;28;20042;-84
2021/01/30 04:48:31;;;;;;;5.22;3.13;;;0.70;99.90;;;;;;4970648;28;20041;-84
2021/01/30 04:51:14;;;;;;;6.07;3.50;;;0.60;99.90;;;;;;4971710;28;20039;-83
2021/01/30 04:53:58;;;;;;;5.95;3.47;;;0.60;99.90;;;;;;4969839;28;20027;-85
2021/01/30 04:56:51;;;;;;;4.63;3.13;;;0.60;99.90;;;;;;4956694;28;20046;-84
2021/01/30 04:59:47;;;;;;;5.75;3.60;;;0.60;99.90;;;;;;4964962;28;20180;-84
2021/01/30 05:02:34;;;;;;;6.28;4.00;;;0.60;99.90;;;;;;4971524;28;20077;-84
2021/01/30 05:05:01;;;;;;;5.70;2.97;;;0.60;99.90;;;;;;4963893;28;20070;-84
2021/01/30 05:07:32;;;;;;;5.13;3.30;;;0.60;99.90;;;;;;4988722;28;20043;-84
2021/01/30 05:10:13;;;;;;;4.60;2.80;;;0.50;99.90;;;;;;4979641;28;20031;-84
2021/01/30 05:12:52;;;;;;;4.63;2.67;;;0.40;99.90;;;;;;4987429;28;20063;-84
2021/01/30 05:15:32;;;;;;;4.13;2.67;;;0.30;99.90;;;;;;4966036;28;20098;-84
2021/01/30 05:18:15;;;;;;;4.00;2.60;;;0.30;99.90;;;;;;4970438;28;20035;-84
2021/01/30 05:20:47;;;;;;;4.15;2.17;;;0.20;99.90;;;;;;4976818;28;20058;-83
2021/01/30 05:23:14;;;;;;;5.18;3.22;;;0.20;99.90;;;;;;4984648;28;20498;-84
2021/01/30 05:25:41;;;;;;;4.90;2.88;;;0.10;99.90;;;;;;4987412;28;20054;-83
2021/01/30 05:28:44;;;;;;;4.55;3.00;;;0.20;99.90;;;;;;4968370;28;20510;-83
2021/01/30 05:31:32;;;;;;;3.85;2.00;;;0.10;99.90;;;;;;4984380;28;20045;-84
2021/01/30 05:34:12;;;;;;;4.55;2.17;;;0.20;99.90;;;;;;4968933;28;20027;-84
2021/01/30 05:36:59;;;;;;;4.30;1.92;;;0.20;99.90;;;;;;4986859;28;20042;-83
2021/01/30 05:39:31;;;;;;;5.10;2.08;;;0.20;99.90;;;;;;4987148;28;20042;-84
2021/01/30 05:42:22;;;;;;;5.15;2.55;;;0.20;99.90;;;;;;4987124;28;20023;-84
2021/01/30 05:44:56;;;;;;;3.53;1.83;;;0.20;99.90;;;;;;4985585;28;20027;-83
2021/01/30 05:47:31;;;;;;;3.72;1.42;;;0.10;99.90;;;;;;4968073;28;20093;-84
2021/01/30 05:50:02;;;;;;;4.07;1.80;;;0.10;99.90;;;;;;4958122;28;20027;-83
2021/01/30 05:52:32;;;;;;;4.00;2.00;;;0.10;99.90;;;;;;4970450;28;20039;-83
2021/01/30 05:54:58;;;;;;;5.30;2.83;;;0.20;99.90;;;;;;4986782;28;20514;-83
2021/01/30 05:57:24;;;;;;;4.30;2.10;;;0.20;99.90;;;;;;4970477;28;20822;-84
2021/01/30 05:59:58;;;;;;;4.80;2.13;;;0.10;99.90;;;;;;4970313;28;20026;-84
2021/01/30 06:02:29;;;;;;;4.90;2.60;;;0.10;99.90;;;;;;4970567;28;20042;-83
2021/01/30 06:04:55;;;;;;;4.78;2.40;;;0.10;99.90;;;;;;4970390;28;20110;-83
2021/01/30 06:07:32;;;;;;;4.22;2.70;;;0.10;99.90;;;;;;4964622;28;20055;-83
2021/01/30 06:09:58;;;;;;;3.83;2.17;;;0.20;99.90;;;;;;4984774;28;20027;-84
2021/01/30 06:12:33;;;;;;;3.95;2.00;;;0.10;99.90;;;;;;4970126;28;20110;-84
2021/01/30 06:15:20;;;;;;;6.38;1.83;;;0.10;99.90;;;;;;4982856;28;20039;-83
2021/01/30 06:17:46;;;;;;;4.10;1.92;;;0.10;99.90;;;;;;4967708;28;20035;-83
2021/01/30 06:20:19;;;;;;;3.67;1.55;;;0.10;99.90;;;;;;4970016;28;20022;-84
2021/01/30 06:22:46;;;;;;;3.35;1.70;;;0.10;99.90;;;;;;4986030;28;20027;-84
2021/01/30 06:25:31;;;;;;;2.85;1.30;;;0.20;99.90;;;;;;4970120;28;20137;-84
2021/01/30 06:28:23;;;;;;;3.72;1.77;;;0.20;99.90;;;;;;4984888;28;20065;-84
2021/01/30 06:30:50;;;;;;;4.05;1.63;;;0.20;99.90;;;;;;4964107;28;20042;-84
2021/01/30 06:33:30;;;;;;;3.20;1.30;;;0.20;99.90;;;;;;4947532;28;20027;-83
2021/01/30 06:36:06;;;;;;;2.83;1.38;;;0.20;99.90;;;;;;4969863;28;20275;-84
2021/01/30 06:38:39;;;;;;;3.90;1.65;;;0.20;99.90;;;;;;4963038;28;20384;-85
2021/01/30 06:41:12;;;;;;;2.88;1.27;;;0.20;99.90;;;;;;4968708;28;20055;-85
2021/01/30 06:43:45;;;;;;;3.90;1.70;;;0.20;99.90;;;;;;4983691;28;20030;-85
2021/01/30 06:46:14;;;;;;;2.72;1.50;;;0.30;99.90;;;;;;4969525;28;20031;-85
2021/01/30 06:48:44;;;;;;;3.13;1.33;;;0.30;99.90;;;;;;4969359;28;20038;-84
2021/01/30 06:51:35;;;;;;;3.35;1.73;;;0.30;99.90;;;;;;4966976;28;20065;-83
2021/01/30 06:54:24;;;;;;;3.47;1.65;;;0.30;99.90;;;;;;4964544;28;20038;-85
2021/01/30 06:56:58;;;;;;;3.47;1.48;;;0.30;99.90;;;;;;4952039;28;20030;-85
2021/01/30 06:59:28;;;;;;;3.30;1.60;;;0.30;99.90;;;;;;4971976;28;20038;-85
2021/01/30 07:01:54;;;;;;;3.55;2.00;;;0.30;99.90;;;;;;4953935;28;20039;-84
2021/01/30 07:04:57;;;;;;;3.70;1.33;;;0.30;99.90;;;;;;4985186;28;20022;-85
2021/01/30 07:07:30;;;;;;;3.47;1.50;;;0.30;99.90;;;;;;4966839;28;20059;-84
2021/01/30 07:10:28;;;;;;;3.33;1.40;;;0.30;99.90;;;;;;4966475;28;20074;-85
2021/01/30 07:13:22;;;;;;;3.47;1.88;;;0.30;99.90;;;;;;4965859;28;20074;-85
2021/01/30 07:16:35;;;;;;;3.60;1.38;;;0.30;99.90;;;;;;4967760;28;20106;-85
2021/01/30 07:19:31;;;;;;;3.25;1.40;;;0.30;99.90;;;;;;4886691;28;20094;-85
2021/01/30 07:22:11;;;;;;;3.40;1.70;;;0.30;99.90;;;;;;4983350;28;20031;-85
2021/01/30 07:25:03;;;;;;;3.13;1.73;;;0.30;99.90;;;;;;4947845;28;20054;-85
2021/01/30 07:28:18;;;;;;;3.95;1.85;;;0.30;99.90;;;;;;4966598;28;20065;-85
2021/01/30 07:30:57;;;;;;;4.95;2.00;;;0.30;99.90;;;;;;4892075;29;20274;-85
2021/01/30 07:33:29;;;;;;;4.68;1.70;;;0.30;99.90;;;;;;4879787;29;20036;-85
2021/01/30 07:36:07;;;;;;;4.45;1.90;;;0.30;99.90;;;;;;4878701;29;20032;-85
2021/01/30 07:38:56;;;;;;;4.03;2.03;;;0.30;99.90;;;;;;4905647;29;20040;-84
2021/01/30 07:41:28;;;;;;;4.70;2.28;;;0.30;99.90;;;;;;4906072;29;20032;-85
2021/01/30 07:44:10;;;;;;;3.70;1.83;;;0.30;99.90;;;;;;4876318;29;20037;-84
2021/01/30 07:46:44;;;;;;;4.22;1.75;;;0.40;99.90;;;;;;4879517;29;20032;-84
2021/01/30 07:49:17;;;;;;;5.65;2.42;;;0.40;99.90;;;;;;4910598;29;20111;-85
2021/01/30 07:52:03;;;;;;;6.47;3.00;;;0.40;99.90;;;;;;4893666;29;20040;-85
2021/01/30 07:54:30;;;;;;;4.40;2.15;;;0.40;99.90;;;;;;4877509;29;20075;-85
2021/01/30 07:57:29;;;;;;;5.32;2.67;;;0.40;99.90;;;;;;4910468;29;20037;-84
2021/01/30 08:00:01;;;;;;;5.03;2.53;;;0.40;99.90;;;;;;4910552;29;20115;-85
2021/01/30 08:02:53;;;;;;;4.97;2.58;;;0.40;99.90;;;;;;4985540;28;20053;-85
2021/01/30 08:05:41;;;;;;;7.47;3.40;;;0.40;99.90;;;;;;4979670;28;20118;-85
2021/01/30 08:08:25;;;;;;;5.55;3.00;;;0.40;99.90;;;;;;4876480;29;20049;-85
2021/01/30 08:11:18;;;;;;;5.10;2.45;;;0.50;99.90;;;;;;4894331;29;20045;-84
2021/01/30 08:13:58;;;;;;;5.97;3.20;;;0.50;99.90;;;;;;4892929;29;20076;-85
2021/01/30 08:16:26;;;;;;;4.00;1.77;;;0.50;99.90;;;;;;4879289;29;20041;-85
2021/01/30 08:18:53;;;;;;;5.95;3.08;;;0.50;99.90;;;;;;4878643;29;20462;-85
2021/01/30 08:22:00;;;;;;;6.10;3.05;;;0.50;99.90;;;;;;4877514;29;20111;-85
2021/01/30 08:24:45;;;;;;;6.10;3.08;;;0.60;99.90;;;;;;4885794;29;20116;-85
2021/01/30 08:27:25;;;;;;;5.95;3.08;;;0.60;99.90;;;;;;4893507;29;20043;-85
2021/01/30 08:29:58;;;;;;;4.65;2.17;;;0.60;99.90;;;;;;4910499;29;20039;-84
2021/01/30 08:32:24;;;;;;;6.20;3.30;;;0.70;99.90;;;;;;4894632;29;20040;-85
2021/01/30 08:34:58;;;;;;;4.78;2.17;;;0.70;99.90;;;;;;4878603;29;20559;-85
2021/01/30 08:37:26;;;;;;;5.43;2.67;;;0.60;99.90;;;;;;4894752;29;20156;-85
2021/01/30 08:40:13;;;;;;;5.40;2.22;;;0.60;99.90;;;;;;4878875;29;20141;-85
2021/01/30 08:42:56;;;;;;;5.15;2.30;;;0.60;99.90;;;;;;4894772;29;20039;-84
2021/01/30 08:45:31;;;;;;;6.03;2.78;;;0.60;99.90;;;;;;4926349;28;20035;-85
2021/01/30 08:48:06;;;;;;;4.68;2.50;;;0.60;99.90;;;;;;4987382;28;20031;-85
2021/01/30 08:50:41;;;;;;;6.28;3.00;;;0.50;99.90;;;;;;4955149;28;20040;-85
2021/01/30 08:53:13;;;;;;;5.18;2.25;;;0.50;99.90;;;;;;4968518;28;20133;-85
2021/01/30 08:55:44;;;;;;;4.55;2.10;;;0.60;99.90;;;;;;4967639;28;20034;-84
2021/01/30 08:58:32;;;;;;;4.78;2.67;;;0.60;99.90;;;;;;4976591;28;20034;-84
2021/01/30 09:01:20;;;;;;;4.13;2.28;;;0.70;99.90;;;;;;4976355;28;20086;-85
2021/01/30 09:03:55;;;;;;;4.75;1.88;;;0.70;99.90;;;;;;4969878;28;20062;-85
2021/01/30 09:06:39;;;;;;;6.45;3.22;;;0.80;99.90;;;;;;4968291;28;20102;-85
2021/01/30 09:09:13;;;;;;;6.15;3.42;;;0.80;99.90;;;;;;4954699;28;20050;-83
2021/01/30 09:11:53;;;;;;;6.20;2.80;;;0.80;99.90;;;;;;4969222;28;20039;-85
2021/01/30 09:14:19;;;;;;;10.63;3.60;;;0.90;99.90;;;;;;4986507;28;20031;-85
2021/01/30 09:16:57;;;;;;;7.40;3.70;;;0.80;99.90;;;;;;4969327;28;20502;-85
2021/01/30 09:20:00;;;;;;;8.50;3.22;;;0.90;99.90;;;;;;4971609;28;20030;-85
2021/01/30 09:22:35;;;;;;;6.35;3.35;;;0.90;99.90;;;;;;4969348;28;20051;-85
2021/01/30 09:25:06;;;;;;;7.35;3.42;;;0.90;99.90;;;;;;4984171;28;20022;-85
2021/01/30 09:27:35;;;;;;;4.85;2.55;;;1.00;99.90;;;;;;4970858;28;20042;-85
2021/01/30 09:30:38;;;;;;;5.85;2.88;;;1.00;99.90;;;;;;4987160;28;20041;-85
2021/01/30 09:33:32;;;;;;;6.65;2.70;;;1.00;99.90;;;;;;4971677;28;20047;-84
2021/01/30 09:36:24;;;;;;;5.25;2.78;;;1.00;99.90;;;;;;4962377;28;20042;-84
2021/01/30 09:38:58;;;;;;;7.30;3.55;;;1.00;99.90;;;;;;4970043;28;20043;-85
2021/01/30 09:41:26;;;;;;;7.70;3.90;;;1.00;99.90;;;;;;4983336;28;20130;-84
2021/01/30 09:44:21;;;;;;;9.43;5.18;;;1.00;99.90;;;;;;4969274;28;20027;-85
2021/01/30 09:46:51;;;;;;;8.20;3.58;;;1.10;99.90;;;;;;4950685;28;20035;-84
2021/01/30 09:49:32;;;;;;;8.52;4.55;;;1.20;99.90;;;;;;4967579;28;20288;-84
2021/01/30 09:52:00;;;;;;;7.90;4.03;;;1.20;99.90;;;;;;4968543;28;20138;-85
2021/01/30 09:54:28;;;;;;;4.80;2.42;;;1.20;99.90;;;;;;4966336;28;20034;-84
2021/01/30 09:56:59;;;;;;;7.25;4.28;;;1.30;99.90;;;;;;4967246;28;20090;-84
2021/01/30 09:59:28;;;;;;;;;;;1.30;99.90;;;;;;4974062;28;20041;-84
2021/01/30 10:02:08;;;;;;;6.95;3.45;;;1.30;99.90;;;;;;4983055;28;19945;-84
2021/01/30 10:04:34;;;;;;;7.93;3.95;;;1.30;99.90;;;;;;4972288;28;20035;-84
2021/01/30 10:07:10;;;;;;;8.07;3.95;;;1.50;99.90;;;;;;4968049;28;20053;-84
2021/01/30 10:09:45;;;;;;;5.57;2.83;;;1.50;99.90;;;;;;4976531;28;20037;-84
2021/01/30 10:12:12;;;;;;;6.03;3.33;;;1.70;99.90;;;;;;4968204;28;20047;-84
2021/01/30 10:14:45;;;;;;;6.22;3.85;;;1.70;99.90;;;;;;4984681;28;20042;-84
2021/01/30 10:17:15;;;;;;;6.65;3.25;;;1.60;99.90;;;;;;4952681;28;20048;-84
2021/01/30 10:19:41;;;;;;;5.88;3.30;;;1.60;99.90;;;;;;4968969;28;20062;-84
2021/01/30 10:22:19;;;;;;;5.68;3.65;;;1.60;99.90;;;;;;4968417;28;20090;-84
2021/01/30 10:24:46;;;;;;;7.03;3.70;;;1.60;99.90;;;;;;4969784;28;20030;-84
2021/01/30 10:27:24;;;;;;;5.70;3.17;;;1.60;99.90;;;;;;4985644;28;20046;-85
2021/01/30 10:29:56;;;;;;;4.28;2.47;;;1.60;99.90;;;;;;4965853;28;20030;-84
2021/01/30 10:32:36;;;;;;;6.03;3.33;;;1.60;99.90;;;;;;4985530;28;20038;-84
2021/01/30 10:35:07;;;;;;;4.82;2.67;;;1.60;99.90;;;;;;4965339;28;20066;-84
2021/01/30 10:37:55;;;;;;;4.95;3.15;;;1.70;99.90;;;;;;4958336;28;20051;-83
2021/01/30 10:40:33;;;;;;;4.30;2.70;;;1.80;99.90;;;;;;4952186;28;20030;-84
2021/01/30 10:43:01;;;;;;;6.18;2.95;;;1.90;99.90;;;;;;4983676;28;20035;-84
2021/01/30 10:45:29;;;;;;;4.93;2.10;;;1.90;99.90;;;;;;4965159;28;20049;-84
2021/01/30 10:48:08;;;;;;;5.72;2.60;;;1.90;99.90;;;;;;4967922;28;20713;-83
2021/01/30 10:50:47;;;;;;;4.88;2.47;;;2.00;99.90;;;;;;4973994;28;20039;-85
2021/01/30 10:53:35;;;;;;;4.32;2.42;;;1.90;99.90;;;;;;4981278;28;20113;-84
2021/01/30 10:56:19;;;;;;;5.18;2.70;;;2.00;99.90;;;;;;4962822;28;20427;-83
2021/01/30 10:58:46;;;;;;;5.45;3.40;;;2.00;99.90;;;;;;4929773;28;20034;-84
2021/01/30 11:01:21;;;;;;;5.72;3.42;;;2.00;99.90;;;;;;4962669;28;20186;-84
2021/01/30 11:03:55;;;;;;;4.38;2.47;;;2.00;99.90;;;;;;4951631;28;20031;-84
2021/01/30 11:06:28;;;;;;;4.30;2.60;;;2.00;99.90;;;;;;4962240;28;20028;-84
2021/01/30 11:08:54;;;;;;;3.97;2.28;;;2.10;99.90;;;;;;4962558;28;20047;-85
2021/01/30 11:11:27;;;;;;;4.97;2.20;;;2.20;99.90;;;;;;4948631;28;20034;-83
2021/01/30 11:13:54;;;;;;;4.78;2.20;;;2.30;99.90;;;;;;4967174;28;20037;-84
2021/01/30 11:16:39;;;;;;;4.53;1.98;;;2.40;99.90;;;;;;4967137;28;20030;-84
2021/01/30 11:19:23;;;;;;;5.28;2.92;;;2.40;99.90;;;;;;4950403;28;20102;-84
2021/01/30 11:22:02;;;;;;;3.72;1.70;;;2.40;99.90;;;;;;4983260;28;20034;-84
2021/01/30 11:24:46;;;;;;;3.88;2.22;;;2.40;99.90;;;;;;4982407;28;20031;-84
2021/01/30 11:27:40;;;;;;;4.53;2.30;;;2.40;99.90;;;;;;4982101;28;20046;-84
2021/01/30 11:30:30;;;;;;;5.18;3.03;;;2.40;99.90;;;;;;4962859;28;20092;-85
2021/01/30 11:32:57;;;;;;;4.25;2.33;;;2.50;99.90;;;;;;4956288;28;20041;-84
2021/01/30 11:35:29;;;;;;;5.45;3.03;;;2.60;99.90;;;;;;4963954;28;20042;-85
2021/01/30 11:38:03;;;;;;;5.82;2.90;;;2.50;99.90;;;;;;4965768;28;20046;-84
2021/01/30 11:40:28;;;;;;;5.50;3.15;;;2.50;99.90;;;;;;4966742;28;20069;-82
2021/01/30 11:42:54;;;;;;;5.95;2.83;;;2.50;99.90;;;;;;4969887;28;20035;-84
2021/01/30 11:45:20;;;;;;;6.72;3.50;;;2.60;99.90;;;;;;4967396;28;20026;-84
2021/01/30 11:47:45;;;;;;;5.30;2.20;;;2.70;99.90;;;;;;4966885;28;20526;-84
2021/01/30 11:50:11;;;;;;;5.35;2.88;;;2.70;99.90;;;;;;4972523;28;20027;-83
2021/01/30 11:52:37;;;;;;;5.25;2.90;;;2.70;99.90;;;;;;4966803;28;20046;-84
2021/01/30 11:55:04;;;;;;;5.55;3.13;;;2.70;99.90;;;;;;4966780;28;20435;-84
2021/01/30 11:57:30;;;;;;;5.88;2.75;;;2.70;99.90;;;;;;4934422;28;20114;-84
2021/01/30 11:59:56;;;;;;;5.20;2.55;;;2.60;99.90;;;;;;4967128;28;20027;-84
2021/01/30 12:02:35;;;;;;;6.20;3.10;;;2.70;99.90;;;;;;4964213;28;20119;-84
2021/01/30 12:05:02;;;;;;;4.93;3.30;;;2.60;99.90;;;;;;4962303;28;20042;-84
2021/01/30 12:07:27;;;;;;;6.35;3.70;;;2.50;99.90;;;;;;4976904;28;20059;-84
2021/01/30 12:09:53;;;;;;;5.30;3.53;;;2.60;99.90;;;;;;4954581;28;20497;-84
2021/01/30 12:12:19;;;;;;;4.97;3.25;;;2.60;99.90;;;;;;4963194;28;20078;-85
2021/01/30 12:14:45;;;;;;;5.20;3.30;;;2.60;99.90;;;;;;4965973;28;20027;-84
2021/01/30 12:17:40;;;;;;;6.20;4.05;;;2.50;99.90;;;;;;4949968;28;20046;-84
2021/01/30 12:20:10;;;;;;;6.55;4.22;;;2.60;99.90;;;;;;4919988;28;20023;-84
2021/01/30 12:22:35;;;;;;;6.15;3.95;;;2.50;99.90;;;;;;4981614;28;20072;-84
2021/01/30 12:25:02;;;;;;;5.82;3.38;;;2.50;99.90;;;;;;4962586;28;20057;-85
2021/01/30 12:27:28;;;;;;;6.20;3.70;;;2.50;99.90;;;;;;4948917;28;20050;-83
2021/01/30 12:29:54;;;;;;;5.80;3.75;;;2.40;99.90;;;;;;4968528;28;20043;-84
2021/01/30 12:32:20;;;;;;;8.43;4.75;;;2.40;99.90;;;;;;4968760;28;20197;-84
2021/01/30 12:34:45;;;;;;;7.30;3.75;;;2.40;99.90;;;;;;4969088;28;20406;-84
2021/01/30 12:37:11;;;;;;;7.43;4.10;;;2.50;99.90;;;;;;4985412;28;20034;-84
2021/01/30 12:39:37;;;;;;;6.93;4.07;;;2.50;99.90;;;;;;4968720;28;20090;-84
2021/01/30 12:42:04;;;;;;;6.95;4.20;;;2.50;99.90;;;;;;4963950;28;20042;-84
2021/01/30 12:44:30;;;;;;;6.40;3.78;;;2.50;99.90;;;;;;4969244;28;20033;-84
2021/01/30 12:46:56;;;;;;;6.20;2.83;;;2.50;99.90;;;;;;4969373;28;20026;-85
2021/01/30 12:49:22;;;;;;;7.75;4.35;;;2.50;99.90;;;;;;4952772;28;20045;-84
2021/01/30 12:51:47;;;;;;;7.68;4.47;;;2.60;99.90;;;;;;4966055;28;20038;-84
2021/01/30 12:54:18;;;;;;;7.32;3.78;;;2.60;99.90;;;;;;4953444;28;20142;-84
2021/01/30 12:56:45;;;;;;;8.35;4.40;;;2.70;99.90;;;;;;4947596;28;20066;-84
2021/01/30 12:59:13;;;;;;;7.28;4.50;;;2.70;99.90;;;;;;4983813;28;20037;-84
2021/01/30 13:01:38;;;;;;;5.13;2.78;;;2.80;99.90;;;;;;4966267;28;20031;-83
2021/01/30 13:04:05;;;;;;;8.00;4.57;;;2.80;99.90;;;;;;4966483;28;20037;-83
2021/01/30 13:06:32;;;;;;;5.65;3.22;;;2.80;99.90;;;;;;4966767;28;20027;-85
2021/01/30 13:08:58;;;;;;;6.40;3.97;;;2.80;99.90;;;;;;4984315;28;20261;-84
2021/01/30 13:11:23;;;;;;;5.50;3.10;;;2.80;99.90;;;;;;4944654;28;20074;-84
2021/01/30 13:13:49;;;;;;;7.15;3.90;;;2.80;99.90;;;;;;4984771;28;20065;-84
2021/01/30 13:16:15;;;;;;;5.93;2.92;;;2.90;99.90;;;;;;4987442;28;20019;-87
2021/01/30 13:18:40;;;;;;;7.13;4.25;;;2.80;99.90;;;;;;4969929;28;20050;-85
2021/01/30 13:21:08;;;;;;;7.43;4.22;;;2.70;99.90;;;;;;4969553;28;20057;-84
2021/01/30 13:23:34;;;;;;;6.50;4.30;;;2.70;99.90;;;;;;4968535;28;20093;-84
2021/01/30 13:26:01;;;;;;;6.00;4.00;;;2.70;99.90;;;;;;4953785;28;20094;-83
2021/01/30 13:28:26;;;;;;;7.97;4.00;;;2.70;99.90;;;;;;4953396;28;20035;-83
2021/01/30 13:30:53;;;;;;;6.90;4.10;;;2.60;99.90;;;;;;4968742;28;20404;-84